sensor_id;sensor_type;location;lat;lon;timestamp;temperature;humidity
14170;DHT22;63889;50.596;8.690;2023-09-19T00:00:07;19.00;99.90
14170;DHT22;63889;50.596;8.690;2023-09-19T00:02:33;18.90;99.90
14170;DHT22;63889;50.596;8.690;2023-09-19T00:04:59;19.10;99.90
14170;DHT22;63889;50.596;8.690;2023-09-19T00:07:28;19.00;99.90
14170;DHT22;63889;50.596;8.690;2023-09-19T00:09:54;18.90;99.90
14170;DHT22;63889;50.596;8.690;2023-09-19T00:12:20;19.00;99.90
14170;DHT22;63889;50.596;8.690;2023-09-19T00:14:45;19.10;99.90
14170;DHT22;63889;50.596;8.690;2023-09-19T00:17:11;19.00;99.90
14170;DHT22;63889;50.596;8.690;2023-09-19T00:19:36;19.00;99.90
14170;DHT22;63889;50.596;8.690;2023-09-19T00:22:03;19.00;99.90
14170;DHT22;63889;50.596;8.690;2023-09-19T00:24:29;19.10;99.90
14170;DHT22;63889;50.596;8.690;2023-09-19T00:26:56;19.00;99.90
14170;DHT22;63889;50.596;8.690;2023-09-19T00:29:22;19.00;99.90
14170;DHT22;63889;50.596;8.690;2023-09-19T00:31:48;18.90;99.90
14170;DHT22;63889;50.596;8.690;2023-09-19T00:34:15;18.80;99.90
14170;DHT22;63889;50.596;8.690;2023-09-19T00:36:41;18.60;99.90
14170;DHT22;63889;50.596;8.690;2023-09-19T00:39:08;18.80;99.90
14170;DHT22;63889;50.596;8.690;2023-09-19T00:41:34;18.90;99.90
14170;DHT22;63889;50.596;8.690;2023-09-19T00:44:02;18.80;99.90
14170;DHT22;63889;50.596;8.690;2023-09-19T00:46:29;19.00;99.90
14170;DHT22;63889;50.596;8.690;2023-09-19T00:48:56;19.00;99.90
14170;DHT22;63889;50.596;8.690;2023-09-19T00:51:22;18.90;99.90
14170;DHT22;63889;50.596;8.690;2023-09-19T00:53:48;19.00;99.90
14170;DHT22;63889;50.596;8.690;2023-09-19T00:56:15;18.90;99.90
14170;DHT22;63889;50.596;8.690;2023-09-19T00:58:44;18.90;99.90
14170;DHT22;63889;50.596;8.690;2023-09-19T01:01:09;18.70;99.90
14170;DHT22;63889;50.596;8.690;2023-09-19T01:03:37;18.60;99.90
14170;DHT22;63889;50.596;8.690;2023-09-19T01:06:03;18.50;99.90
14170;DHT22;63889;50.596;8.690;2023-09-19T01:08:29;18.40;99.90
14170;DHT22;63889;50.596;8.690;2023-09-19T01:11:19;18.40;99.90
14170;DHT22;63889;50.596;8.690;2023-09-19T01:21:57;18.20;99.90
14170;DHT22;63889;50.596;8.690;2023-09-19T01:30:14;18.10;99.90
14170;DHT22;63889;50.596;8.690;2023-09-19T01:32:39;18.20;99.90
14170;DHT22;63889;50.596;8.690;2023-09-19T01:35:07;18.20;99.90
14170;DHT22;63889;50.596;8.690;2023-09-19T01:37:37;18.20;99.90
14170;DHT22;63889;50.596;8.690;2023-09-19T01:40:06;18.20;99.90
14170;DHT22;63889;50.596;8.690;2023-09-19T01:43:00;18.20;99.90
14170;DHT22;63889;50.596;8.690;2023-09-19T01:48:16;18.20;99.90
14170;DHT22;63889;50.596;8.690;2023-09-19T01:50:55;18.10;99.90
14170;DHT22;63889;50.596;8.690;2023-09-19T01:53:26;18.10;99.90
14170;DHT22;63889;50.596;8.690;2023-09-19T01:55:57;18.00;99.90
14170;DHT22;63889;50.596;8.690;2023-09-19T01:58:42;18.10;99.90
14170;DHT22;63889;50.596;8.690;2023-09-19T02:01:12;18.10;99.90
14170;DHT22;63889;50.596;8.690;2023-09-19T02:03:41;18.10;99.90
14170;DHT22;63889;50.596;8.690;2023-09-19T02:06:14;18.10;99.90
14170;DHT22;63889;50.596;8.690;2023-09-19T02:08:39;18.10;99.90
14170;DHT22;63889;50.596;8.690;2023-09-19T02:11:05;18.00;99.90
14170;DHT22;63889;50.596;8.690;2023-09-19T02:13:31;18.10;99.90
14170;DHT22;63889;50.596;8.690;2023-09-19T02:15:57;18.10;99.90
14170;DHT22;63889;50.596;8.690;2023-09-19T02:18:22;18.10;99.90
14170;DHT22;63889;50.596;8.690;2023-09-19T02:20:48;18.10;99.90
14170;DHT22;63889;50.596;8.690;2023-09-19T02:23:14;18.10;99.90
14170;DHT22;63889;50.596;8.690;2023-09-19T02:25:41;18.10;99.90
14170;DHT22;63889;50.596;8.690;2023-09-19T02:28:09;18.10;99.90
14170;DHT22;63889;50.596;8.690;2023-09-19T02:30:34;18.10;99.90
14170;DHT22;63889;50.596;8.690;2023-09-19T02:33:01;18.10;99.90
14170;DHT22;63889;50.596;8.690;2023-09-19T02:35:27;18.00;99.90
14170;DHT22;63889;50.596;8.690;2023-09-19T02:37:53;17.90;99.90
14170;DHT22;63889;50.596;8.690;2023-09-19T02:40:19;17.80;99.90
14170;DHT22;63889;50.596;8.690;2023-09-19T02:42:46;17.80;99.90
14170;DHT22;63889;50.596;8.690;2023-09-19T02:45:18;17.80;99.90
14170;DHT22;63889;50.596;8.690;2023-09-19T02:47:45;17.80;99.90
14170;DHT22;63889;50.596;8.690;2023-09-19T02:50:11;17.80;99.90
14170;DHT22;63889;50.596;8.690;2023-09-19T02:52:37;17.70;99.90
14170;DHT22;63889;50.596;8.690;2023-09-19T02:55:03;17.70;99.90
14170;DHT22;63889;50.596;8.690;2023-09-19T02:57:31;17.70;99.90
14170;DHT22;63889;50.596;8.690;2023-09-19T02:59:59;17.80;99.90
14170;DHT22;63889;50.596;8.690;2023-09-19T03:02:26;17.70;99.90
14170;DHT22;63889;50.596;8.690;2023-09-19T03:04:53;17.60;99.90
14170;DHT22;63889;50.596;8.690;2023-09-19T03:07:19;17.40;99.90
14170;DHT22;63889;50.596;8.690;2023-09-19T03:09:44;17.40;99.90
14170;DHT22;63889;50.596;8.690;2023-09-19T03:12:11;17.50;99.90
14170;DHT22;63889;50.596;8.690;2023-09-19T03:14:36;17.50;99.90
14170;DHT22;63889;50.596;8.690;2023-09-19T03:17:02;17.50;99.90
14170;DHT22;63889;50.596;8.690;2023-09-19T03:19:31;17.40;99.90
14170;DHT22;63889;50.596;8.690;2023-09-19T03:21:59;17.40;99.90
14170;DHT22;63889;50.596;8.690;2023-09-19T03:24:24;17.40;99.90
14170;DHT22;63889;50.596;8.690;2023-09-19T03:26:50;17.30;99.90
14170;DHT22;63889;50.596;8.690;2023-09-19T03:29:16;17.40;99.90
14170;DHT22;63889;50.596;8.690;2023-09-19T03:31:43;17.40;99.90
14170;DHT22;63889;50.596;8.690;2023-09-19T03:34:08;17.50;99.90
14170;DHT22;63889;50.596;8.690;2023-09-19T03:36:34;17.50;99.90
14170;DHT22;63889;50.596;8.690;2023-09-19T03:39:01;17.50;99.90
14170;DHT22;63889;50.596;8.690;2023-09-19T03:41:26;17.60;99.90
14170;DHT22;63889;50.596;8.690;2023-09-19T03:43:52;17.60;99.90
14170;DHT22;63889;50.596;8.690;2023-09-19T03:46:18;17.70;99.90
14170;DHT22;63889;50.596;8.690;2023-09-19T03:48:44;17.70;99.90
14170;DHT22;63889;50.596;8.690;2023-09-19T03:51:09;17.70;99.90
14170;DHT22;63889;50.596;8.690;2023-09-19T03:53:36;17.80;99.90
14170;DHT22;63889;50.596;8.690;2023-09-19T03:56:01;17.70;99.90
14170;DHT22;63889;50.596;8.690;2023-09-19T03:58:27;17.60;99.90
14170;DHT22;63889;50.596;8.690;2023-09-19T04:00:56;17.50;99.90
14170;DHT22;63889;50.596;8.690;2023-09-19T04:03:23;17.40;99.90
14170;DHT22;63889;50.596;8.690;2023-09-19T04:05:50;17.40;99.90
14170;DHT22;63889;50.596;8.690;2023-09-19T04:08:15;17.40;99.90
14170;DHT22;63889;50.596;8.690;2023-09-19T04:10:42;17.30;99.90
14170;DHT22;63889;50.596;8.690;2023-09-19T04:13:09;17.40;99.90
14170;DHT22;63889;50.596;8.690;2023-09-19T04:15:34;17.40;99.90
14170;DHT22;63889;50.596;8.690;2023-09-19T04:18:00;17.30;99.90
14170;DHT22;63889;50.596;8.690;2023-09-19T04:20:25;17.20;99.90
14170;DHT22;63889;50.596;8.690;2023-09-19T04:22:51;17.10;99.90
14170;DHT22;63889;50.596;8.690;2023-09-19T04:25:17;17.00;99.90
14170;DHT22;63889;50.596;8.690;2023-09-19T04:27:44;16.90;99.90
14170;DHT22;63889;50.596;8.690;2023-09-19T04:30:10;16.80;99.90
14170;DHT22;63889;50.596;8.690;2023-09-19T04:32:40;16.80;99.90
14170;DHT22;63889;50.596;8.690;2023-09-19T04:35:10;16.90;99.90
14170;DHT22;63889;50.596;8.690;2023-09-19T04:37:39;16.90;99.90
14170;DHT22;63889;50.596;8.690;2023-09-19T04:40:09;16.80;99.90
14170;DHT22;63889;50.596;8.690;2023-09-19T04:42:41;16.80;99.90
14170;DHT22;63889;50.596;8.690;2023-09-19T04:45:07;16.70;99.90
14170;DHT22;63889;50.596;8.690;2023-09-19T04:47:35;16.50;99.90
14170;DHT22;63889;50.596;8.690;2023-09-19T04:50:01;16.60;99.90
14170;DHT22;63889;50.596;8.690;2023-09-19T04:52:26;16.60;99.90
14170;DHT22;63889;50.596;8.690;2023-09-19T04:54:52;16.70;99.90
14170;DHT22;63889;50.596;8.690;2023-09-19T04:57:18;16.70;99.90
14170;DHT22;63889;50.596;8.690;2023-09-19T04:59:43;16.50;99.90
14170;DHT22;63889;50.596;8.690;2023-09-19T05:02:09;16.50;99.90
14170;DHT22;63889;50.596;8.690;2023-09-19T05:04:34;16.50;99.90
14170;DHT22;63889;50.596;8.690;2023-09-19T05:07:01;16.60;99.90
14170;DHT22;63889;50.596;8.690;2023-09-19T05:09:29;16.50;99.90
14170;DHT22;63889;50.596;8.690;2023-09-19T05:11:54;16.50;99.90
14170;DHT22;63889;50.596;8.690;2023-09-19T05:14:21;16.50;99.90
14170;DHT22;63889;50.596;8.690;2023-09-19T05:16:48;16.50;99.90
14170;DHT22;63889;50.596;8.690;2023-09-19T05:19:13;16.50;99.90
14170;DHT22;63889;50.596;8.690;2023-09-19T05:21:39;16.50;99.90
14170;DHT22;63889;50.596;8.690;2023-09-19T05:24:05;16.50;99.90
14170;DHT22;63889;50.596;8.690;2023-09-19T05:26:33;16.60;99.90
14170;DHT22;63889;50.596;8.690;2023-09-19T05:28:59;16.60;99.90
14170;DHT22;63889;50.596;8.690;2023-09-19T05:31:24;16.70;99.90
14170;DHT22;63889;50.596;8.690;2023-09-19T05:33:50;16.70;99.90
14170;DHT22;63889;50.596;8.690;2023-09-19T05:36:16;16.70;99.90
14170;DHT22;63889;50.596;8.690;2023-09-19T05:38:42;16.70;99.90
14170;DHT22;63889;50.596;8.690;2023-09-19T05:41:09;16.70;99.90
14170;DHT22;63889;50.596;8.690;2023-09-19T05:43:39;16.70;99.90
14170;DHT22;63889;50.596;8.690;2023-09-19T05:46:06;16.60;99.90
14170;DHT22;63889;50.596;8.690;2023-09-19T05:48:33;16.70;99.90
14170;DHT22;63889;50.596;8.690;2023-09-19T05:50:59;16.60;99.90
14170;DHT22;63889;50.596;8.690;2023-09-19T05:53:26;16.60;99.90
14170;DHT22;63889;50.596;8.690;2023-09-19T05:55:52;16.40;99.90
14170;DHT22;63889;50.596;8.690;2023-09-19T05:58:19;16.00;99.90
14170;DHT22;63889;50.596;8.690;2023-09-19T06:00:45;15.90;99.90
14170;DHT22;63889;50.596;8.690;2023-09-19T06:03:12;16.00;99.90
14170;DHT22;63889;50.596;8.690;2023-09-19T06:05:40;16.10;99.90
14170;DHT22;63889;50.596;8.690;2023-09-19T06:08:07;16.10;99.90
14170;DHT22;63889;50.596;8.690;2023-09-19T06:10:33;16.20;99.90
14170;DHT22;63889;50.596;8.690;2023-09-19T06:13:01;16.30;99.90
14170;DHT22;63889;50.596;8.690;2023-09-19T06:15:29;16.50;99.90
14170;DHT22;63889;50.596;8.690;2023-09-19T06:17:58;16.60;99.90
14170;DHT22;63889;50.596;8.690;2023-09-19T06:20:25;16.70;99.90
14170;DHT22;63889;50.596;8.690;2023-09-19T06:22:51;16.90;99.90
14170;DHT22;63889;50.596;8.690;2023-09-19T06:25:17;16.90;99.90
14170;DHT22;63889;50.596;8.690;2023-09-19T06:27:51;17.00;99.90
14170;DHT22;63889;50.596;8.690;2023-09-19T06:30:20;17.10;99.90
14170;DHT22;63889;50.596;8.690;2023-09-19T06:32:46;17.00;99.90
14170;DHT22;63889;50.596;8.690;2023-09-19T06:35:12;17.10;99.90
14170;DHT22;63889;50.596;8.690;2023-09-19T06:37:39;17.30;99.90
14170;DHT22;63889;50.596;8.690;2023-09-19T06:40:11;17.30;99.90
14170;DHT22;63889;50.596;8.690;2023-09-19T06:42:43;17.30;99.90
14170;DHT22;63889;50.596;8.690;2023-09-19T06:45:12;17.40;99.90
14170;DHT22;63889;50.596;8.690;2023-09-19T06:47:39;17.40;99.90
14170;DHT22;63889;50.596;8.690;2023-09-19T06:50:05;17.40;99.90
14170;DHT22;63889;50.596;8.690;2023-09-19T06:52:32;17.40;99.90
14170;DHT22;63889;50.596;8.690;2023-09-19T06:54:58;17.50;99.90
14170;DHT22;63889;50.596;8.690;2023-09-19T06:57:24;17.70;99.90
14170;DHT22;63889;50.596;8.690;2023-09-19T06:59:50;17.70;99.90
14170;DHT22;63889;50.596;8.690;2023-09-19T07:02:15;17.70;99.90
14170;DHT22;63889;50.596;8.690;2023-09-19T07:04:41;17.70;99.90
14170;DHT22;63889;50.596;8.690;2023-09-19T07:07:06;17.60;99.90
14170;DHT22;63889;50.596;8.690;2023-09-19T07:09:34;17.60;99.90
14170;DHT22;63889;50.596;8.690;2023-09-19T07:12:00;17.50;99.90
14170;DHT22;63889;50.596;8.690;2023-09-19T07:14:26;17.50;99.90
14170;DHT22;63889;50.596;8.690;2023-09-19T07:16:52;17.50;99.90
14170;DHT22;63889;50.596;8.690;2023-09-19T07:19:18;17.50;99.90
14170;DHT22;63889;50.596;8.690;2023-09-19T07:21:43;17.40;99.90
14170;DHT22;63889;50.596;8.690;2023-09-19T07:24:09;17.40;99.90
14170;DHT22;63889;50.596;8.690;2023-09-19T07:26:34;17.50;99.90
14170;DHT22;63889;50.596;8.690;2023-09-19T07:29:00;17.50;99.90
14170;DHT22;63889;50.596;8.690;2023-09-19T07:31:27;17.60;99.90
14170;DHT22;63889;50.596;8.690;2023-09-19T07:33:54;17.70;99.90
14170;DHT22;63889;50.596;8.690;2023-09-19T07:36:19;17.70;99.90
14170;DHT22;63889;50.596;8.690;2023-09-19T07:38:45;17.70;99.90
14170;DHT22;63889;50.596;8.690;2023-09-19T07:41:11;17.70;99.90
14170;DHT22;63889;50.596;8.690;2023-09-19T07:43:36;17.70;99.90
14170;DHT22;63889;50.596;8.690;2023-09-19T07:46:07;17.70;99.90
14170;DHT22;63889;50.596;8.690;2023-09-19T07:48:37;17.60;99.90
14170;DHT22;63889;50.596;8.690;2023-09-19T07:51:07;17.60;99.90
14170;DHT22;63889;50.596;8.690;2023-09-19T07:53:35;17.60;99.90
14170;DHT22;63889;50.596;8.690;2023-09-19T07:56:08;17.60;99.90
14170;DHT22;63889;50.596;8.690;2023-09-19T07:58:34;17.50;99.90
14170;DHT22;63889;50.596;8.690;2023-09-19T08:01:07;17.60;99.90
14170;DHT22;63889;50.596;8.690;2023-09-19T08:03:34;17.70;99.90
14170;DHT22;63889;50.596;8.690;2023-09-19T08:06:00;17.80;99.90
14170;DHT22;63889;50.596;8.690;2023-09-19T08:08:26;17.80;99.90
14170;DHT22;63889;50.596;8.690;2023-09-19T08:10:56;17.70;99.90
14170;DHT22;63889;50.596;8.690;2023-09-19T08:13:25;17.70;99.90
14170;DHT22;63889;50.596;8.690;2023-09-19T08:15:52;17.80;99.90
14170;DHT22;63889;50.596;8.690;2023-09-19T08:18:20;17.80;99.90
14170;DHT22;63889;50.596;8.690;2023-09-19T08:20:52;17.70;99.90
14170;DHT22;63889;50.596;8.690;2023-09-19T08:23:18;17.60;99.90
14170;DHT22;63889;50.596;8.690;2023-09-19T08:25:46;17.60;99.90
14170;DHT22;63889;50.596;8.690;2023-09-19T08:28:11;17.80;99.90
14170;DHT22;63889;50.596;8.690;2023-09-19T08:30:39;17.80;99.90
14170;DHT22;63889;50.596;8.690;2023-09-19T08:33:06;17.90;99.90
14170;DHT22;63889;50.596;8.690;2023-09-19T08:35:33;18.00;99.90
14170;DHT22;63889;50.596;8.690;2023-09-19T08:37:59;18.00;99.90
14170;DHT22;63889;50.596;8.690;2023-09-19T08:40:30;18.00;99.90
14170;DHT22;63889;50.596;8.690;2023-09-19T08:42:58;18.00;99.90
14170;DHT22;63889;50.596;8.690;2023-09-19T08:45:25;18.00;99.90
14170;DHT22;63889;50.596;8.690;2023-09-19T08:50:31;18.00;99.90
14170;DHT22;63889;50.596;8.690;2023-09-19T08:53:10;18.10;99.90
14170;DHT22;63889;50.596;8.690;2023-09-19T08:55:37;18.20;99.90
14170;DHT22;63889;50.596;8.690;2023-09-19T08:58:10;18.30;99.90
14170;DHT22;63889;50.596;8.690;2023-09-19T09:00:36;18.20;99.90
14170;DHT22;63889;50.596;8.690;2023-09-19T09:03:03;18.30;99.90
14170;DHT22;63889;50.596;8.690;2023-09-19T09:05:32;18.40;99.90
14170;DHT22;63889;50.596;8.690;2023-09-19T09:07:58;18.40;99.90
14170;DHT22;63889;50.596;8.690;2023-09-19T09:10:25;18.50;99.90
14170;DHT22;63889;50.596;8.690;2023-09-19T09:12:54;18.50;99.90
14170;DHT22;63889;50.596;8.690;2023-09-19T09:15:23;18.50;99.90
14170;DHT22;63889;50.596;8.690;2023-09-19T09:17:49;18.40;99.90
14170;DHT22;63889;50.596;8.690;2023-09-19T09:20:17;18.50;99.90
14170;DHT22;63889;50.596;8.690;2023-09-19T09:22:54;18.50;99.90
14170;DHT22;63889;50.596;8.690;2023-09-19T09:25:20;18.40;99.90
14170;DHT22;63889;50.596;8.690;2023-09-19T09:28:09;18.30;99.90
14170;DHT22;63889;50.596;8.690;2023-09-19T09:30:37;18.40;99.90
14170;DHT22;63889;50.596;8.690;2023-09-19T09:33:11;18.40;99.90
14170;DHT22;63889;50.596;8.690;2023-09-19T09:35:54;18.50;99.90
14170;DHT22;63889;50.596;8.690;2023-09-19T09:38:23;18.50;99.90
14170;DHT22;63889;50.596;8.690;2023-09-19T09:40:56;18.60;99.90
14170;DHT22;63889;50.596;8.690;2023-09-19T09:43:28;18.70;99.90
14170;DHT22;63889;50.596;8.690;2023-09-19T09:49:00;18.90;99.90
14170;DHT22;63889;50.596;8.690;2023-09-19T09:51:51;18.90;99.90
14170;DHT22;63889;50.596;8.690;2023-09-19T09:54:25;18.90;99.90
14170;DHT22;63889;50.596;8.690;2023-09-19T09:57:11;19.00;99.90
14170;DHT22;63889;50.596;8.690;2023-09-19T10:02:20;19.20;99.90
14170;DHT22;63889;50.596;8.690;2023-09-19T10:04:51;19.20;99.90
14170;DHT22;63889;50.596;8.690;2023-09-19T10:07:25;19.20;99.90
14170;DHT22;63889;50.596;8.690;2023-09-19T10:09:53;19.20;99.90
14170;DHT22;63889;50.596;8.690;2023-09-19T10:12:24;19.30;99.90
14170;DHT22;63889;50.596;8.690;2023-09-19T10:14:53;19.50;99.90
14170;DHT22;63889;50.596;8.690;2023-09-19T10:17:23;19.80;99.90
14170;DHT22;63889;50.596;8.690;2023-09-19T10:19:56;19.90;99.90
14170;DHT22;63889;50.596;8.690;2023-09-19T10:22:31;20.10;99.90
14170;DHT22;63889;50.596;8.690;2023-09-19T10:24:58;20.10;99.90
14170;DHT22;63889;50.596;8.690;2023-09-19T10:27:26;20.20;99.90
14170;DHT22;63889;50.596;8.690;2023-09-19T10:29:52;20.20;99.90
14170;DHT22;63889;50.596;8.690;2023-09-19T10:32:22;20.30;99.90
14170;DHT22;63889;50.596;8.690;2023-09-19T10:34:49;20.50;99.90
14170;DHT22;63889;50.596;8.690;2023-09-19T10:37:20;20.50;99.90
14170;DHT22;63889;50.596;8.690;2023-09-19T10:39:48;20.30;99.90
14170;DHT22;63889;50.596;8.690;2023-09-19T10:42:19;20.20;99.90
14170;DHT22;63889;50.596;8.690;2023-09-19T10:44:47;20.10;99.90
14170;DHT22;63889;50.596;8.690;2023-09-19T10:47:15;20.20;99.90
14170;DHT22;63889;50.596;8.690;2023-09-19T10:49:44;20.50;99.90
14170;DHT22;63889;50.596;8.690;2023-09-19T10:52:16;20.80;99.90
14170;DHT22;63889;50.596;8.690;2023-09-19T10:54:50;21.00;99.90
14170;DHT22;63889;50.596;8.690;2023-09-19T10:57:23;21.10;99.90
14170;DHT22;63889;50.596;8.690;2023-09-19T11:00:04;21.30;99.90
14170;DHT22;63889;50.596;8.690;2023-09-19T11:06:03;20.90;99.90
14170;DHT22;63889;50.596;8.690;2023-09-19T11:11:38;21.10;99.90
14170;DHT22;63889;50.596;8.690;2023-09-19T11:30:34;22.80;99.90
14170;DHT22;63889;50.596;8.690;2023-09-19T11:36:10;22.00;99.90
14170;DHT22;63889;50.596;8.690;2023-09-19T11:43:52;21.60;99.90
14170;DHT22;63889;50.596;8.690;2023-09-19T11:46:20;21.70;99.90
14170;DHT22;63889;50.596;8.690;2023-09-19T11:48:49;21.70;99.90
14170;DHT22;63889;50.596;8.690;2023-09-19T11:51:20;21.60;99.90
14170;DHT22;63889;50.596;8.690;2023-09-19T11:53:53;21.40;99.90
14170;DHT22;63889;50.596;8.690;2023-09-19T11:56:21;21.40;99.90
14170;DHT22;63889;50.596;8.690;2023-09-19T11:58:53;21.40;99.90
14170;DHT22;63889;50.596;8.690;2023-09-19T12:01:25;21.40;99.90
14170;DHT22;63889;50.596;8.690;2023-09-19T12:03:52;21.30;99.90
14170;DHT22;63889;50.596;8.690;2023-09-19T12:06:18;21.20;99.90
14170;DHT22;63889;50.596;8.690;2023-09-19T12:08:44;21.00;99.90
14170;DHT22;63889;50.596;8.690;2023-09-19T12:11:13;21.10;99.90
14170;DHT22;63889;50.596;8.690;2023-09-19T12:13:47;21.30;99.90
14170;DHT22;63889;50.596;8.690;2023-09-19T12:16:18;21.30;99.90
14170;DHT22;63889;50.596;8.690;2023-09-19T12:18:47;21.10;99.90
14170;DHT22;63889;50.596;8.690;2023-09-19T12:21:28;21.00;99.90
14170;DHT22;63889;50.596;8.690;2023-09-19T12:24:07;21.00;99.90
14170;DHT22;63889;50.596;8.690;2023-09-19T12:26:45;21.10;99.90
14170;DHT22;63889;50.596;8.690;2023-09-19T12:29:15;21.40;99.90
14170;DHT22;63889;50.596;8.690;2023-09-19T12:31:50;21.70;99.90
14170;DHT22;63889;50.596;8.690;2023-09-19T12:34:30;21.90;99.90
14170;DHT22;63889;50.596;8.690;2023-09-19T12:37:06;22.00;99.90
14170;DHT22;63889;50.596;8.690;2023-09-19T12:39:44;22.00;99.90
14170;DHT22;63889;50.596;8.690;2023-09-19T12:42:15;21.90;99.90
14170;DHT22;63889;50.596;8.690;2023-09-19T12:44:45;21.80;99.90
14170;DHT22;63889;50.596;8.690;2023-09-19T12:47:14;21.80;99.90
14170;DHT22;63889;50.596;8.690;2023-09-19T12:50:10;21.90;99.90
14170;DHT22;63889;50.596;8.690;2023-09-19T12:52:49;22.00;99.90
14170;DHT22;63889;50.596;8.690;2023-09-19T12:55:25;22.20;99.90
14170;DHT22;63889;50.596;8.690;2023-09-19T12:57:59;22.30;99.90
14170;DHT22;63889;50.596;8.690;2023-09-19T13:00:36;22.40;99.90
14170;DHT22;63889;50.596;8.690;2023-09-19T13:05:49;22.30;99.90
14170;DHT22;63889;50.596;8.690;2023-09-19T13:08:26;22.20;99.90
14170;DHT22;63889;50.596;8.690;2023-09-19T13:11:09;22.30;99.90
14170;DHT22;63889;50.596;8.690;2023-09-19T13:13:46;22.40;99.90
14170;DHT22;63889;50.596;8.690;2023-09-19T13:16:14;22.30;99.90
14170;DHT22;63889;50.596;8.690;2023-09-19T13:18:49;22.10;99.90
14170;DHT22;63889;50.596;8.690;2023-09-19T13:21:29;22.20;99.90
14170;DHT22;63889;50.596;8.690;2023-09-19T13:23:56;22.30;99.90
14170;DHT22;63889;50.596;8.690;2023-09-19T13:26:27;22.40;99.90
14170;DHT22;63889;50.596;8.690;2023-09-19T13:28:54;22.50;99.90
14170;DHT22;63889;50.596;8.690;2023-09-19T13:31:20;22.50;99.90
14170;DHT22;63889;50.596;8.690;2023-09-19T13:33:47;22.50;99.90
14170;DHT22;63889;50.596;8.690;2023-09-19T13:36:13;22.40;99.90
14170;DHT22;63889;50.596;8.690;2023-09-19T13:38:42;22.40;99.90
14170;DHT22;63889;50.596;8.690;2023-09-19T13:41:13;22.50;99.90
14170;DHT22;63889;50.596;8.690;2023-09-19T13:43:39;22.70;99.90
14170;DHT22;63889;50.596;8.690;2023-09-19T13:46:05;22.80;99.90
14170;DHT22;63889;50.596;8.690;2023-09-19T13:48:33;22.80;99.90
14170;DHT22;63889;50.596;8.690;2023-09-19T13:51:02;22.80;99.90
14170;DHT22;63889;50.596;8.690;2023-09-19T13:53:29;22.80;99.90
14170;DHT22;63889;50.596;8.690;2023-09-19T13:55:54;22.80;99.90
14170;DHT22;63889;50.596;8.690;2023-09-19T13:58:20;22.60;99.90
14170;DHT22;63889;50.596;8.690;2023-09-19T14:00:46;22.70;99.90
14170;DHT22;63889;50.596;8.690;2023-09-19T14:03:12;22.80;99.90
14170;DHT22;63889;50.596;8.690;2023-09-19T14:05:37;22.90;99.90
14170;DHT22;63889;50.596;8.690;2023-09-19T14:08:03;22.80;99.90
14170;DHT22;63889;50.596;8.690;2023-09-19T14:10:30;22.70;99.90
14170;DHT22;63889;50.596;8.690;2023-09-19T14:12:57;22.50;99.90
14170;DHT22;63889;50.596;8.690;2023-09-19T14:15:25;22.60;99.90
14170;DHT22;63889;50.596;8.690;2023-09-19T14:17:58;22.60;99.90
14170;DHT22;63889;50.596;8.690;2023-09-19T14:20:24;22.70;99.90
14170;DHT22;63889;50.596;8.690;2023-09-19T14:22:54;22.80;99.90
14170;DHT22;63889;50.596;8.690;2023-09-19T14:25:20;22.80;99.90
14170;DHT22;63889;50.596;8.690;2023-09-19T14:27:47;22.90;99.90
14170;DHT22;63889;50.596;8.690;2023-09-19T14:30:13;23.00;99.90
14170;DHT22;63889;50.596;8.690;2023-09-19T14:32:39;23.00;99.90
14170;DHT22;63889;50.596;8.690;2023-09-19T14:35:05;23.00;99.90
14170;DHT22;63889;50.596;8.690;2023-09-19T14:37:31;23.40;99.90
14170;DHT22;63889;50.596;8.690;2023-09-19T14:39:57;24.10;99.90
14170;DHT22;63889;50.596;8.690;2023-09-19T14:42:22;24.40;99.90
14170;DHT22;63889;50.596;8.690;2023-09-19T14:44:48;24.50;99.90
14170;DHT22;63889;50.596;8.690;2023-09-19T14:47:15;24.50;99.90
14170;DHT22;63889;50.596;8.690;2023-09-19T14:49:42;24.60;99.90
14170;DHT22;63889;50.596;8.690;2023-09-19T14:52:08;24.30;99.90
14170;DHT22;63889;50.596;8.690;2023-09-19T14:54:34;23.90;99.90
14170;DHT22;63889;50.596;8.690;2023-09-19T14:57:00;23.40;99.90
14170;DHT22;63889;50.596;8.690;2023-09-19T14:59:34;23.10;99.90
14170;DHT22;63889;50.596;8.690;2023-09-19T15:02:06;22.90;99.90
14170;DHT22;63889;50.596;8.690;2023-09-19T15:04:32;22.80;99.90
14170;DHT22;63889;50.596;8.690;2023-09-19T15:06:59;22.70;99.90
14170;DHT22;63889;50.596;8.690;2023-09-19T15:09:26;22.80;99.90
14170;DHT22;63889;50.596;8.690;2023-09-19T15:11:55;22.80;99.90
14170;DHT22;63889;50.596;8.690;2023-09-19T15:14:21;22.70;99.90
14170;DHT22;63889;50.596;8.690;2023-09-19T15:16:47;22.40;99.90
14170;DHT22;63889;50.596;8.690;2023-09-19T15:19:14;22.40;99.90
14170;DHT22;63889;50.596;8.690;2023-09-19T15:21:40;22.40;99.90
14170;DHT22;63889;50.596;8.690;2023-09-19T15:24:06;22.40;99.90
14170;DHT22;63889;50.596;8.690;2023-09-19T15:26:36;22.40;99.90
14170;DHT22;63889;50.596;8.690;2023-09-19T15:29:08;22.30;99.90
14170;DHT22;63889;50.596;8.690;2023-09-19T15:31:35;22.20;99.90
14170;DHT22;63889;50.596;8.690;2023-09-19T15:34:02;22.20;99.90
14170;DHT22;63889;50.596;8.690;2023-09-19T15:36:28;22.30;99.90
14170;DHT22;63889;50.596;8.690;2023-09-19T15:41:25;22.30;99.90
14170;DHT22;63889;50.596;8.690;2023-09-19T15:43:51;22.40;99.90
14170;DHT22;63889;50.596;8.690;2023-09-19T15:46:17;22.50;99.90
14170;DHT22;63889;50.596;8.690;2023-09-19T15:48:43;22.50;99.90
14170;DHT22;63889;50.596;8.690;2023-09-19T15:51:09;22.50;99.90
14170;DHT22;63889;50.596;8.690;2023-09-19T15:53:47;22.40;99.90
14170;DHT22;63889;50.596;8.690;2023-09-19T15:56:14;22.30;99.90
14170;DHT22;63889;50.596;8.690;2023-09-19T15:58:40;22.30;99.90
14170;DHT22;63889;50.596;8.690;2023-09-19T16:01:07;22.30;99.90
14170;DHT22;63889;50.596;8.690;2023-09-19T16:03:39;22.20;99.90
14170;DHT22;63889;50.596;8.690;2023-09-19T16:06:16;22.10;99.90
14170;DHT22;63889;50.596;8.690;2023-09-19T16:08:49;22.10;99.90
14170;DHT22;63889;50.596;8.690;2023-09-19T16:11:15;22.00;99.90
14170;DHT22;63889;50.596;8.690;2023-09-19T16:13:42;21.90;99.90
14170;DHT22;63889;50.596;8.690;2023-09-19T16:16:09;21.90;99.90
14170;DHT22;63889;50.596;8.690;2023-09-19T16:19:01;21.80;99.90
14170;DHT22;63889;50.596;8.690;2023-09-19T16:21:32;21.80;99.90
14170;DHT22;63889;50.596;8.690;2023-09-19T16:23:59;21.90;99.90
14170;DHT22;63889;50.596;8.690;2023-09-19T16:26:25;21.90;99.90
14170;DHT22;63889;50.596;8.690;2023-09-19T16:28:53;21.90;99.90
14170;DHT22;63889;50.596;8.690;2023-09-19T16:31:20;21.90;99.90
14170;DHT22;63889;50.596;8.690;2023-09-19T16:33:47;21.80;99.90
14170;DHT22;63889;50.596;8.690;2023-09-19T16:36:14;21.70;99.90
14170;DHT22;63889;50.596;8.690;2023-09-19T16:38:42;21.70;99.90